sensor_id;sensor_type;location;lat;lon;timestamp;temperature;humidity
20141;DHT22;10231;47.702;9.826;2022-11-02T00:00:56;9.20;99.90
20141;DHT22;10231;47.702;9.826;2022-11-02T00:03:22;9.20;99.90
20141;DHT22;10231;47.702;9.826;2022-11-02T00:05:47;9.10;99.90
20141;DHT22;10231;47.702;9.826;2022-11-02T00:08:13;9.10;99.90
20141;DHT22;10231;47.702;9.826;2022-11-02T00:10:38;9.20;99.90
20141;DHT22;10231;47.702;9.826;2022-11-02T00:13:04;9.20;99.90
20141;DHT22;10231;47.702;9.826;2022-11-02T00:15:32;9.10;99.90
20141;DHT22;10231;47.702;9.826;2022-11-02T00:18:04;9.10;99.90
20141;DHT22;10231;47.702;9.826;2022-11-02T00:20:33;9.10;99.90
20141;DHT22;10231;47.702;9.826;2022-11-02T00:23:00;9.00;99.90
20141;DHT22;10231;47.702;9.826;2022-11-02T00:25:27;9.00;99.90
20141;DHT22;10231;47.702;9.826;2022-11-02T00:27:53;9.00;99.90
20141;DHT22;10231;47.702;9.826;2022-11-02T00:30:19;9.10;99.90
20141;DHT22;10231;47.702;9.826;2022-11-02T00:32:45;9.10;99.90
20141;DHT22;10231;47.702;9.826;2022-11-02T00:35:11;9.00;99.90
20141;DHT22;10231;47.702;9.826;2022-11-02T00:37:36;9.00;99.90
20141;DHT22;10231;47.702;9.826;2022-11-02T00:40:03;9.00;99.90
20141;DHT22;10231;47.702;9.826;2022-11-02T00:42:29;9.00;99.90
20141;DHT22;10231;47.702;9.826;2022-11-02T00:44:54;8.90;99.90
20141;DHT22;10231;47.702;9.826;2022-11-02T00:47:20;8.90;99.90
20141;DHT22;10231;47.702;9.826;2022-11-02T00:49:45;8.80;99.90
20141;DHT22;10231;47.702;9.826;2022-11-02T00:52:11;8.80;99.90
20141;DHT22;10231;47.702;9.826;2022-11-02T00:54:36;8.80;99.90
20141;DHT22;10231;47.702;9.826;2022-11-02T00:57:02;8.80;99.90
20141;DHT22;10231;47.702;9.826;2022-11-02T00:59:28;8.80;99.90
20141;DHT22;10231;47.702;9.826;2022-11-02T01:01:53;8.80;99.90
20141;DHT22;10231;47.702;9.826;2022-11-02T01:04:19;8.80;99.90
20141;DHT22;10231;47.702;9.826;2022-11-02T01:06:45;8.70;99.90
20141;DHT22;10231;47.702;9.826;2022-11-02T01:09:12;8.70;99.90
20141;DHT22;10231;47.702;9.826;2022-11-02T01:11:39;8.70;99.90
20141;DHT22;10231;47.702;9.826;2022-11-02T01:14:05;8.70;99.90
20141;DHT22;10231;47.702;9.826;2022-11-02T01:16:30;8.80;99.90
20141;DHT22;10231;47.702;9.826;2022-11-02T01:18:57;8.80;99.90
20141;DHT22;10231;47.702;9.826;2022-11-02T01:21:23;8.70;99.90
20141;DHT22;10231;47.702;9.826;2022-11-02T01:23:48;8.80;99.90
20141;DHT22;10231;47.702;9.826;2022-11-02T01:26:14;8.80;99.90
20141;DHT22;10231;47.702;9.826;2022-11-02T01:28:40;8.90;99.90
20141;DHT22;10231;47.702;9.826;2022-11-02T01:31:07;9.00;99.90
20141;DHT22;10231;47.702;9.826;2022-11-02T01:33:33;9.00;99.90
20141;DHT22;10231;47.702;9.826;2022-11-02T01:36:02;9.00;99.90
20141;DHT22;10231;47.702;9.826;2022-11-02T01:38:29;9.00;99.90
20141;DHT22;10231;47.702;9.826;2022-11-02T01:40:54;9.00;99.90
20141;DHT22;10231;47.702;9.826;2022-11-02T01:48:41;9.10;99.90
20141;DHT22;10231;47.702;9.826;2022-11-02T01:51:10;9.20;99.90
20141;DHT22;10231;47.702;9.826;2022-11-02T01:53:39;9.20;99.90
20141;DHT22;10231;47.702;9.826;2022-11-02T01:56:06;9.20;99.90
20141;DHT22;10231;47.702;9.826;2022-11-02T01:58:32;9.30;99.90
20141;DHT22;10231;47.702;9.826;2022-11-02T02:01:00;9.30;99.90
20141;DHT22;10231;47.702;9.826;2022-11-02T02:03:26;9.30;99.90
20141;DHT22;10231;47.702;9.826;2022-11-02T02:05:59;9.30;99.90
20141;DHT22;10231;47.702;9.826;2022-11-02T02:08:27;9.30;99.90
20141;DHT22;10231;47.702;9.826;2022-11-02T02:10:55;9.40;99.90
20141;DHT22;10231;47.702;9.826;2022-11-02T02:13:21;9.40;99.90
20141;DHT22;10231;47.702;9.826;2022-11-02T02:16:10;9.40;99.90
20141;DHT22;10231;47.702;9.826;2022-11-02T02:18:49;9.40;99.90
20141;DHT22;10231;47.702;9.826;2022-11-02T02:21:24;9.50;99.90
20141;DHT22;10231;47.702;9.826;2022-11-02T02:27:01;9.50;99.90
20141;DHT22;10231;47.702;9.826;2022-11-02T02:29:50;9.50;99.90
20141;DHT22;10231;47.702;9.826;2022-11-02T02:32:35;9.60;99.90
20141;DHT22;10231;47.702;9.826;2022-11-02T02:35:23;9.50;99.90
20141;DHT22;10231;47.702;9.826;2022-11-02T02:37:59;9.50;99.90
20141;DHT22;10231;47.702;9.826;2022-11-02T02:43:09;9.50;99.90
20141;DHT22;10231;47.702;9.826;2022-11-02T02:48:11;9.60;99.90
20141;DHT22;10231;47.702;9.826;2022-11-02T02:51:08;9.60;99.90
20141;DHT22;10231;47.702;9.826;2022-11-02T02:53:57;9.70;99.90
20141;DHT22;10231;47.702;9.826;2022-11-02T02:56:25;9.80;99.90
20141;DHT22;10231;47.702;9.826;2022-11-02T02:59:01;9.80;99.90
20141;DHT22;10231;47.702;9.826;2022-11-02T03:01:29;9.70;99.90
20141;DHT22;10231;47.702;9.826;2022-11-02T03:03:55;9.80;99.90
20141;DHT22;10231;47.702;9.826;2022-11-02T03:06:28;9.80;99.90
20141;DHT22;10231;47.702;9.826;2022-11-02T03:09:18;9.80;99.90
20141;DHT22;10231;47.702;9.826;2022-11-02T03:14:54;9.70;99.90
20141;DHT22;10231;47.702;9.826;2022-11-02T03:31:11;9.70;99.90
20141;DHT22;10231;47.702;9.826;2022-11-02T03:36:34;9.80;99.90
20141;DHT22;10231;47.702;9.826;2022-11-02T03:39:10;9.80;99.90
20141;DHT22;10231;47.702;9.826;2022-11-02T03:41:39;9.80;99.90
20141;DHT22;10231;47.702;9.826;2022-11-02T03:44:08;9.80;99.90
20141;DHT22;10231;47.702;9.826;2022-11-02T03:46:37;9.90;99.90
20141;DHT22;10231;47.702;9.826;2022-11-02T03:49:05;9.80;99.90
20141;DHT22;10231;47.702;9.826;2022-11-02T03:51:35;9.90;99.90
20141;DHT22;10231;47.702;9.826;2022-11-02T03:54:08;9.90;99.90
20141;DHT22;10231;47.702;9.826;2022-11-02T03:56:40;9.90;99.90
20141;DHT22;10231;47.702;9.826;2022-11-02T03:59:06;9.80;99.90
20141;DHT22;10231;47.702;9.826;2022-11-02T04:01:41;9.80;99.90
20141;DHT22;10231;47.702;9.826;2022-11-02T04:04:07;9.80;99.90
20141;DHT22;10231;47.702;9.826;2022-11-02T04:06:34;9.80;99.90
20141;DHT22;10231;47.702;9.826;2022-11-02T04:09:00;9.90;99.90
20141;DHT22;10231;47.702;9.826;2022-11-02T04:11:26;9.90;99.90
20141;DHT22;10231;47.702;9.826;2022-11-02T04:14:11;9.90;99.90
20141;DHT22;10231;47.702;9.826;2022-11-02T04:16:55;9.90;99.90
20141;DHT22;10231;47.702;9.826;2022-11-02T04:19:39;10.00;99.90
20141;DHT22;10231;47.702;9.826;2022-11-02T04:22:05;10.00;99.90
20141;DHT22;10231;47.702;9.826;2022-11-02T04:25:04;10.10;99.90
20141;DHT22;10231;47.702;9.826;2022-11-02T04:27:47;10.00;99.90
20141;DHT22;10231;47.702;9.826;2022-11-02T04:30:15;10.00;99.90
20141;DHT22;10231;47.702;9.826;2022-11-02T04:32:43;10.00;99.90
20141;DHT22;10231;47.702;9.826;2022-11-02T04:35:28;10.00;99.90
20141;DHT22;10231;47.702;9.826;2022-11-02T04:37:53;10.00;99.90
20141;DHT22;10231;47.702;9.826;2022-11-02T04:40:38;10.00;99.90
20141;DHT22;10231;47.702;9.826;2022-11-02T04:43:04;10.00;99.90
20141;DHT22;10231;47.702;9.826;2022-11-02T04:45:29;10.00;99.90
20141;DHT22;10231;47.702;9.826;2022-11-02T04:47:59;10.00;99.90
20141;DHT22;10231;47.702;9.826;2022-11-02T04:50:25;10.10;99.90
20141;DHT22;10231;47.702;9.826;2022-11-02T04:52:58;10.10;99.90
20141;DHT22;10231;47.702;9.826;2022-11-02T04:55:25;10.10;99.90
20141;DHT22;10231;47.702;9.826;2022-11-02T04:57:50;10.10;99.90
20141;DHT22;10231;47.702;9.826;2022-11-02T05:00:17;10.10;99.90
20141;DHT22;10231;47.702;9.826;2022-11-02T05:02:45;10.00;99.90
20141;DHT22;10231;47.702;9.826;2022-11-02T05:05:11;10.00;99.90
20141;DHT22;10231;47.702;9.826;2022-11-02T05:07:37;10.00;99.90
20141;DHT22;10231;47.702;9.826;2022-11-02T05:10:03;10.00;99.90
20141;DHT22;10231;47.702;9.826;2022-11-02T05:12:28;9.90;99.90
20141;DHT22;10231;47.702;9.826;2022-11-02T05:14:54;10.00;99.90
20141;DHT22;10231;47.702;9.826;2022-11-02T05:17:19;10.00;99.90
20141;DHT22;10231;47.702;9.826;2022-11-02T05:19:45;10.00;99.90
20141;DHT22;10231;47.702;9.826;2022-11-02T05:22:10;10.00;99.90
20141;DHT22;10231;47.702;9.826;2022-11-02T05:24:36;10.00;99.90
20141;DHT22;10231;47.702;9.826;2022-11-02T05:27:02;10.10;99.90
20141;DHT22;10231;47.702;9.826;2022-11-02T05:29:27;10.10;99.90
20141;DHT22;10231;47.702;9.826;2022-11-02T05:31:53;10.10;99.90
20141;DHT22;10231;47.702;9.826;2022-11-02T05:34:18;10.10;99.90
20141;DHT22;10231;47.702;9.826;2022-11-02T05:36:47;10.10;99.90
20141;DHT22;10231;47.702;9.826;2022-11-02T05:39:12;10.10;99.90
20141;DHT22;10231;47.702;9.826;2022-11-02T05:41:38;10.10;99.90
20141;DHT22;10231;47.702;9.826;2022-11-02T05:44:03;10.10;99.90
20141;DHT22;10231;47.702;9.826;2022-11-02T05:46:29;10.20;99.90
20141;DHT22;10231;47.702;9.826;2022-11-02T05:48:54;10.20;99.90
20141;DHT22;10231;47.702;9.826;2022-11-02T05:51:20;10.20;99.90
20141;DHT22;10231;47.702;9.826;2022-11-02T05:53:46;10.20;99.90
20141;DHT22;10231;47.702;9.826;2022-11-02T05:56:11;10.30;99.90
20141;DHT22;10231;47.702;9.826;2022-11-02T05:58:38;10.30;99.90
20141;DHT22;10231;47.702;9.826;2022-11-02T06:01:06;10.30;99.90
20141;DHT22;10231;47.702;9.826;2022-11-02T06:03:32;10.30;99.90
20141;DHT22;10231;47.702;9.826;2022-11-02T06:06:00;10.20;99.90
20141;DHT22;10231;47.702;9.826;2022-11-02T06:08:26;10.20;99.90
20141;DHT22;10231;47.702;9.826;2022-11-02T06:10:52;10.20;99.90
20141;DHT22;10231;47.702;9.826;2022-11-02T06:13:19;10.20;99.90
20141;DHT22;10231;47.702;9.826;2022-11-02T06:15:45;10.20;99.90
20141;DHT22;10231;47.702;9.826;2022-11-02T06:18:10;10.20;99.90
20141;DHT22;10231;47.702;9.826;2022-11-02T06:20:36;10.20;99.90
20141;DHT22;10231;47.702;9.826;2022-11-02T06:23:01;10.20;99.90
20141;DHT22;10231;47.702;9.826;2022-11-02T06:25:27;10.30;99.90
20141;DHT22;10231;47.702;9.826;2022-11-02T06:27:54;10.30;99.90
20141;DHT22;10231;47.702;9.826;2022-11-02T06:30:23;10.30;99.90
20141;DHT22;10231;47.702;9.826;2022-11-02T06:32:50;10.40;99.90
20141;DHT22;10231;47.702;9.826;2022-11-02T06:35:17;10.40;99.90
20141;DHT22;10231;47.702;9.826;2022-11-02T06:37:44;10.40;99.90
20141;DHT22;10231;47.702;9.826;2022-11-02T06:40:10;10.40;99.90
20141;DHT22;10231;47.702;9.826;2022-11-02T06:42:36;10.40;99.90
20141;DHT22;10231;47.702;9.826;2022-11-02T06:45:03;10.40;99.90
20141;DHT22;10231;47.702;9.826;2022-11-02T06:47:33;10.50;99.90
20141;DHT22;10231;47.702;9.826;2022-11-02T06:49:59;10.50;99.90
20141;DHT22;10231;47.702;9.826;2022-11-02T06:52:26;10.50;99.90
20141;DHT22;10231;47.702;9.826;2022-11-02T06:54:51;10.50;99.90
20141;DHT22;10231;47.702;9.826;2022-11-02T06:57:18;10.50;99.90
20141;DHT22;10231;47.702;9.826;2022-11-02T06:59:43;10.60;99.90
20141;DHT22;10231;47.702;9.826;2022-11-02T07:02:09;10.60;99.90
20141;DHT22;10231;47.702;9.826;2022-11-02T07:04:35;10.60;99.90
20141;DHT22;10231;47.702;9.826;2022-11-02T07:07:00;10.60;99.90
20141;DHT22;10231;47.702;9.826;2022-11-02T07:09:26;10.60;99.90
20141;DHT22;10231;47.702;9.826;2022-11-02T07:11:52;10.70;99.90
20141;DHT22;10231;47.702;9.826;2022-11-02T07:14:18;10.70;99.90
20141;DHT22;10231;47.702;9.826;2022-11-02T07:16:43;10.80;99.90
20141;DHT22;10231;47.702;9.826;2022-11-02T07:19:09;10.80;99.90
20141;DHT22;10231;47.702;9.826;2022-11-02T07:21:35;10.80;99.90
20141;DHT22;10231;47.702;9.826;2022-11-02T07:24:00;10.90;99.90
20141;DHT22;10231;47.702;9.826;2022-11-02T07:26:26;10.90;99.90
20141;DHT22;10231;47.702;9.826;2022-11-02T07:28:52;10.90;99.90
20141;DHT22;10231;47.702;9.826;2022-11-02T07:31:17;10.90;99.90
20141;DHT22;10231;47.702;9.826;2022-11-02T07:33:43;10.90;99.90
20141;DHT22;10231;47.702;9.826;2022-11-02T07:36:09;10.90;99.90
20141;DHT22;10231;47.702;9.826;2022-11-02T07:38:34;10.90;99.90
20141;DHT22;10231;47.702;9.826;2022-11-02T07:41:00;11.00;99.90
20141;DHT22;10231;47.702;9.826;2022-11-02T07:43:26;11.00;99.90
20141;DHT22;10231;47.702;9.826;2022-11-02T07:45:51;11.00;99.90
20141;DHT22;10231;47.702;9.826;2022-11-02T07:48:17;11.00;99.90
20141;DHT22;10231;47.702;9.826;2022-11-02T07:50:42;11.00;99.90
20141;DHT22;10231;47.702;9.826;2022-11-02T07:53:08;11.00;99.90
20141;DHT22;10231;47.702;9.826;2022-11-02T07:55:34;10.90;99.90
20141;DHT22;10231;47.702;9.826;2022-11-02T07:58:01;11.00;99.90
20141;DHT22;10231;47.702;9.826;2022-11-02T08:00:32;11.10;99.90
20141;DHT22;10231;47.702;9.826;2022-11-02T08:02:59;11.10;99.90
20141;DHT22;10231;47.702;9.826;2022-11-02T08:05:27;11.10;99.90
20141;DHT22;10231;47.702;9.826;2022-11-02T08:08:08;11.10;99.90
20141;DHT22;10231;47.702;9.826;2022-11-02T08:10:35;11.20;99.90
20141;DHT22;10231;47.702;9.826;2022-11-02T08:13:01;11.20;99.90
20141;DHT22;10231;47.702;9.826;2022-11-02T08:15:27;11.20;99.90
20141;DHT22;10231;47.702;9.826;2022-11-02T08:18:07;11.20;99.90
20141;DHT22;10231;47.702;9.826;2022-11-02T08:20:34;11.30;99.90
20141;DHT22;10231;47.702;9.826;2022-11-02T08:23:00;11.30;99.90
20141;DHT22;10231;47.702;9.826;2022-11-02T08:25:26;11.40;99.90
20141;DHT22;10231;47.702;9.826;2022-11-02T08:27:55;11.40;99.90
20141;DHT22;10231;47.702;9.826;2022-11-02T08:30:22;11.40;99.90
20141;DHT22;10231;47.702;9.826;2022-11-02T08:32:48;11.50;99.90
20141;DHT22;10231;47.702;9.826;2022-11-02T08:35:13;11.50;99.90
20141;DHT22;10231;47.702;9.826;2022-11-02T08:37:39;11.60;99.90
20141;DHT22;10231;47.702;9.826;2022-11-02T08:40:05;11.70;99.90
20141;DHT22;10231;47.702;9.826;2022-11-02T08:42:31;11.70;99.90
20141;DHT22;10231;47.702;9.826;2022-11-02T08:44:56;11.70;99.90
20141;DHT22;10231;47.702;9.826;2022-11-02T08:47:22;11.70;99.90
20141;DHT22;10231;47.702;9.826;2022-11-02T08:49:48;11.80;99.90
20141;DHT22;10231;47.702;9.826;2022-11-02T08:52:16;11.80;99.90
20141;DHT22;10231;47.702;9.826;2022-11-02T08:54:42;11.90;99.90
20141;DHT22;10231;47.702;9.826;2022-11-02T08:57:07;11.90;99.90
20141;DHT22;10231;47.702;9.826;2022-11-02T08:59:33;11.90;99.90
20141;DHT22;10231;47.702;9.826;2022-11-02T09:01:58;11.90;99.90
20141;DHT22;10231;47.702;9.826;2022-11-02T09:04:24;12.00;99.90
20141;DHT22;10231;47.702;9.826;2022-11-02T09:06:50;12.00;99.90
20141;DHT22;10231;47.702;9.826;2022-11-02T09:09:16;12.10;99.90
20141;DHT22;10231;47.702;9.826;2022-11-02T09:11:41;12.10;99.90
20141;DHT22;10231;47.702;9.826;2022-11-02T09:14:07;12.20;99.90
20141;DHT22;10231;47.702;9.826;2022-11-02T09:16:33;12.20;99.90
20141;DHT22;10231;47.702;9.826;2022-11-02T09:18:59;12.20;99.90
20141;DHT22;10231;47.702;9.826;2022-11-02T09:21:24;12.10;99.90
20141;DHT22;10231;47.702;9.826;2022-11-02T09:23:50;12.20;99.90
20141;DHT22;10231;47.702;9.826;2022-11-02T09:26:15;12.20;99.90
20141;DHT22;10231;47.702;9.826;2022-11-02T09:28:41;12.10;99.90
20141;DHT22;10231;47.702;9.826;2022-11-02T09:31:07;12.20;99.90
20141;DHT22;10231;47.702;9.826;2022-11-02T09:33:32;12.30;99.90
20141;DHT22;10231;47.702;9.826;2022-11-02T09:36:03;12.20;99.90
20141;DHT22;10231;47.702;9.826;2022-11-02T09:38:29;12.30;99.90
20141;DHT22;10231;47.702;9.826;2022-11-02T09:43:58;12.30;99.90
20141;DHT22;10231;47.702;9.826;2022-11-02T09:46:36;12.40;99.90
20141;DHT22;10231;47.702;9.826;2022-11-02T09:49:05;12.40;99.90
20141;DHT22;10231;47.702;9.826;2022-11-02T09:54:21;12.50;99.90
20141;DHT22;10231;47.702;9.826;2022-11-02T09:56:48;12.60;99.90
20141;DHT22;10231;47.702;9.826;2022-11-02T09:59:19;12.50;99.90
20141;DHT22;10231;47.702;9.826;2022-11-02T10:09:56;12.70;99.90
20141;DHT22;10231;47.702;9.826;2022-11-02T10:15:07;12.60;99.90
20141;DHT22;10231;47.702;9.826;2022-11-02T10:17:37;12.70;99.90
20141;DHT22;10231;47.702;9.826;2022-11-02T10:20:10;12.70;99.90
20141;DHT22;10231;47.702;9.826;2022-11-02T10:22:41;12.80;99.90
20141;DHT22;10231;47.702;9.826;2022-11-02T10:25:11;12.70;99.90
20141;DHT22;10231;47.702;9.826;2022-11-02T10:27:39;12.70;99.90
20141;DHT22;10231;47.702;9.826;2022-11-02T10:30:11;12.60;99.90
20141;DHT22;10231;47.702;9.826;2022-11-02T10:32:39;12.60;99.90
20141;DHT22;10231;47.702;9.826;2022-11-02T10:35:33;12.70;99.90
20141;DHT22;10231;47.702;9.826;2022-11-02T10:38:09;12.70;99.90
20141;DHT22;10231;47.702;9.826;2022-11-02T10:44:09;12.60;99.90
20141;DHT22;10231;47.702;9.826;2022-11-02T10:46:45;12.70;99.90
20141;DHT22;10231;47.702;9.826;2022-11-02T10:51:48;12.80;99.90
20141;DHT22;10231;47.702;9.826;2022-11-02T10:54:14;12.80;99.90
20141;DHT22;10231;47.702;9.826;2022-11-02T10:56:42;12.80;99.90
20141;DHT22;10231;47.702;9.826;2022-11-02T10:59:16;12.70;99.90
20141;DHT22;10231;47.702;9.826;2022-11-02T11:04:27;12.70;99.90
20141;DHT22;10231;47.702;9.826;2022-11-02T11:06:54;12.70;99.90
20141;DHT22;10231;47.702;9.826;2022-11-02T11:09:29;12.80;99.90
20141;DHT22;10231;47.702;9.826;2022-11-02T11:12:05;12.80;99.90
20141;DHT22;10231;47.702;9.826;2022-11-02T11:14:47;12.80;99.90
20141;DHT22;10231;47.702;9.826;2022-11-02T11:17:19;12.70;99.90
20141;DHT22;10231;47.702;9.826;2022-11-02T11:19:53;12.70;99.90
20141;DHT22;10231;47.702;9.826;2022-11-02T11:22:32;12.80;99.90
20141;DHT22;10231;47.702;9.826;2022-11-02T11:27:51;12.70;99.90
20141;DHT22;10231;47.702;9.826;2022-11-02T11:30:25;12.60;99.90
20141;DHT22;10231;47.702;9.826;2022-11-02T11:32:52;12.60;99.90
20141;DHT22;10231;47.702;9.826;2022-11-02T11:35:18;12.60;99.90
20141;DHT22;10231;47.702;9.826;2022-11-02T11:37:50;12.60;99.90
20141;DHT22;10231;47.702;9.826;2022-11-02T11:40:19;12.70;99.90
20141;DHT22;10231;47.702;9.826;2022-11-02T11:42:52;12.70;99.90
20141;DHT22;10231;47.702;9.826;2022-11-02T11:45:22;12.70;99.90
20141;DHT22;10231;47.702;9.826;2022-11-02T11:47:54;12.70;99.90
20141;DHT22;10231;47.702;9.826;2022-11-02T11:50:21;12.70;99.90
20141;DHT22;10231;47.702;9.826;2022-11-02T11:52:47;12.80;99.90
20141;DHT22;10231;47.702;9.826;2022-11-02T11:55:31;12.90;99.90
20141;DHT22;10231;47.702;9.826;2022-11-02T11:58:30;12.80;99.90
20141;DHT22;10231;47.702;9.826;2022-11-02T12:01:05;12.90;99.90
20141;DHT22;10231;47.702;9.826;2022-11-02T12:03:31;13.00;99.90
20141;DHT22;10231;47.702;9.826;2022-11-02T12:06:11;12.90;99.90
20141;DHT22;10231;47.702;9.826;2022-11-02T12:08:44;13.00;99.90
20141;DHT22;10231;47.702;9.826;2022-11-02T12:17:03;13.00;99.90
20141;DHT22;10231;47.702;9.826;2022-11-02T12:19:56;13.10;99.90
20141;DHT22;10231;47.702;9.826;2022-11-02T12:25:39;13.10;99.90
20141;DHT22;10231;47.702;9.826;2022-11-02T12:39:13;13.10;99.90
20141;DHT22;10231;47.702;9.826;2022-11-02T12:44:19;13.10;99.90
20141;DHT22;10231;47.702;9.826;2022-11-02T12:47:21;13.10;99.90
20141;DHT22;10231;47.702;9.826;2022-11-02T12:50:11;13.10;99.90
20141;DHT22;10231;47.702;9.826;2022-11-02T12:55:55;13.10;99.90
20141;DHT22;10231;47.702;9.826;2022-11-02T12:58:22;13.20;99.90
20141;DHT22;10231;47.702;9.826;2022-11-02T13:00:54;13.30;99.90
20141;DHT22;10231;47.702;9.826;2022-11-02T13:06:17;13.40;99.90
20141;DHT22;10231;47.702;9.826;2022-11-02T13:08:49;13.40;99.90
20141;DHT22;10231;47.702;9.826;2022-11-02T13:11:47;13.30;99.90
20141;DHT22;10231;47.702;9.826;2022-11-02T13:14:18;13.30;99.90
20141;DHT22;10231;47.702;9.826;2022-11-02T13:17:00;13.30;99.90
20141;DHT22;10231;47.702;9.826;2022-11-02T13:19:35;13.40;99.90
20141;DHT22;10231;47.702;9.826;2022-11-02T13:22:03;13.50;99.90
20141;DHT22;10231;47.702;9.826;2022-11-02T13:24:33;13.40;99.90
20141;DHT22;10231;47.702;9.826;2022-11-02T13:27:04;13.40;99.90
20141;DHT22;10231;47.702;9.826;2022-11-02T13:29:39;13.40;99.90
20141;DHT22;10231;47.702;9.826;2022-11-02T13:32:16;13.50;99.90
20141;DHT22;10231;47.702;9.826;2022-11-02T13:34:47;13.60;99.90
20141;DHT22;10231;47.702;9.826;2022-11-02T13:39:52;13.80;99.90
20141;DHT22;10231;47.702;9.826;2022-11-02T13:50:17;14.30;99.90
20141;DHT22;10231;47.702;9.826;2022-11-02T13:52:48;14.30;99.90
20141;DHT22;10231;47.702;9.826;2022-11-02T13:55:21;14.20;99.90
20141;DHT22;10231;47.702;9.826;2022-11-02T13:57:52;14.10;99.90
20141;DHT22;10231;47.702;9.826;2022-11-02T14:02:53;14.00;99.90
20141;DHT22;10231;47.702;9.826;2022-11-02T14:05:32;14.10;99.90
20141;DHT22;10231;47.702;9.826;2022-11-02T14:08:09;14.00;99.90
20141;DHT22;10231;47.702;9.826;2022-11-02T14:10:40;14.00;99.90
20141;DHT22;10231;47.702;9.826;2022-11-02T14:13:14;14.00;99.90
20141;DHT22;10231;47.702;9.826;2022-11-02T14:15:42;14.00;99.90
20141;DHT22;10231;47.702;9.826;2022-11-02T14:20:37;14.00;99.90
20141;DHT22;10231;47.702;9.826;2022-11-02T14:23:33;14.00;99.90
20141;DHT22;10231;47.702;9.826;2022-11-02T14:25:59;14.10;99.90
20141;DHT22;10231;47.702;9.826;2022-11-02T14:28:41;14.20;99.90
20141;DHT22;10231;47.702;9.826;2022-11-02T14:36:41;14.10;99.90
20141;DHT22;10231;47.702;9.826;2022-11-02T14:39:45;14.00;99.90
20141;DHT22;10231;47.702;9.826;2022-11-02T14:47:12;14.00;99.90
20141;DHT22;10231;47.702;9.826;2022-11-02T14:49:50;14.00;99.90
20141;DHT22;10231;47.702;9.826;2022-11-02T14:52:30;14.00;99.90
20141;DHT22;10231;47.702;9.826;2022-11-02T14:55:03;13.90;99.90
20141;DHT22;10231;47.702;9.826;2022-11-02T14:57:35;13.90;99.90
20141;DHT22;10231;47.702;9.826;2022-11-02T15:00:16;13.90;99.90
20141;DHT22;10231;47.702;9.826;2022-11-02T15:02:42;13.90;99.90
20141;DHT22;10231;47.702;9.826;2022-11-02T15:05:22;13.90;99.90
20141;DHT22;10231;47.702;9.826;2022-11-02T15:18:36;13.80;99.90
20141;DHT22;10231;47.702;9.826;2022-11-02T15:28:54;13.60;99.90
20141;DHT22;10231;47.702;9.826;2022-11-02T15:31:22;13.60;99.90
20141;DHT22;10231;47.702;9.826;2022-11-02T15:33:52;13.50;99.90
20141;DHT22;10231;47.702;9.826;2022-11-02T15:36:28;13.50;99.90
20141;DHT22;10231;47.702;9.826;2022-11-02T15:38:55;13.40;99.90
20141;DHT22;10231;47.702;9.826;2022-11-02T15:44:23;13.30;99.90
20141;DHT22;10231;47.702;9.826;2022-11-02T15:55:20;12.80;99.90
20141;DHT22;10231;47.702;9.826;2022-11-02T16:00:22;12.50;99.90
20141;DHT22;10231;47.702;9.826;2022-11-02T16:03:07;12.40;99.90
20141;DHT22;10231;47.702;9.826;2022-11-02T16:08:02;12.20;99.90
20141;DHT22;10231;47.702;9.826;2022-11-02T16:10:33;12.10;99.90
20141;DHT22;10231;47.702;9.826;2022-11-02T16:15:36;12.00;99.90
20141;DHT22;10231;47.702;9.826;2022-11-02T16:18:03;12.00;99.90
20141;DHT22;10231;47.702;9.826;2022-11-02T16:20:31;11.90;99.90
20141;DHT22;10231;47.702;9.826;2022-11-02T16:23:02;11.80;99.90
20141;DHT22;10231;47.702;9.826;2022-11-02T16:25:35;11.70;99.90
20141;DHT22;10231;47.702;9.826;2022-11-02T16:28:21;11.50;99.90
20141;DHT22;10231;47.702;9.826;2022-11-02T16:33:38;11.40;99.90
20141;DHT22;10231;47.702;9.826;2022-11-02T16:36:06;11.30;99.90
20141;DHT22;10231;47.702;9.826;2022-11-02T16:38:35;11.30;99.90
20141;DHT22;10231;47.702;9.826;2022-11-02T16:41:02;11.30;99.90
20141;DHT22;10231;47.702;9.826;2022-11-02T16:43:28;11.30;99.90
20141;DHT22;10231;47.702;9.826;2022-11-02T16:45:59;11.30;99.90
20141;DHT22;10231;47.702;9.826;2022-11-02T16:48:30;11.40;99.90
20141;DHT22;10231;47.702;9.826;2022-11-02T16:53:39;11.20;99.90
20141;DHT22;10231;47.702;9.826;2022-11-02T16:56:34;11.10;99.90
20141;DHT22;10231;47.702;9.826;2022-11-02T16:59:03;10.90;99.90
20141;DHT22;10231;47.702;9.826;2022-11-02T17:01:35;11.00;99.90
20141;DHT22;10231;47.702;9.826;2022-11-02T17:04:14;11.00;99.90
20141;DHT22;10231;47.702;9.826;2022-11-02T17:06:40;11.00;99.90
20141;DHT22;10231;47.702;9.826;2022-11-02T17:09:30;10.90;99.90
20141;DHT22;10231;47.702;9.826;2022-11-02T17:12:03;10.90;99.90
20141;DHT22;10231;47.702;9.826;2022-11-02T17:14:30;10.80;99.90
20141;DHT22;10231;47.702;9.826;2022-11-02T17:17:05;10.70;99.90
20141;DHT22;10231;47.702;9.826;2022-11-02T17:22:28;10.60;99.90
20141;DHT22;10231;47.702;9.826;2022-11-02T17:27:32;10.50;99.90
20141;DHT22;10231;47.702;9.826;2022-11-02T17:29:58;10.60;99.90
20141;DHT22;10231;47.702;9.826;2022-11-02T17:32:24;10.70;99.90
20141;DHT22;10231;47.702;9.826;2022-11-02T17:34:54;10.70;99.90
20141;DHT22;10231;47.702;9.826;2022-11-02T17:37:25;10.70;99.90
20141;DHT22;10231;47.702;9.826;2022-11-02T17:39:52;10.70;99.90
20141;DHT22;10231;47.702;9.826;2022-11-02T17:42:19;10.70;99.90
20141;DHT22;10231;47.702;9.826;2022-11-02T17:47:51;10.50;99.90
20141;DHT22;10231;47.702;9.826;2022-11-02T17:50:17;10.40;99.90
20141;DHT22;10231;47.702;9.826;2022-11-02T17:52:43;10.30;99.90
20141;DHT22;10231;47.702;9.826;2022-11-02T17:55:22;10.20;99.90
20141;DHT22;10231;47.702;9.826;2022-11-02T17:57:48;10.00;99.90
20141;DHT22;10231;47.702;9.826;2022-11-02T18:00:15;10.00;99.90
20141;DHT22;10231;47.702;9.826;2022-11-02T18:02:47;9.90;99.90
20141;DHT22;10231;47.702;9.826;2022-11-02T18:05:28;9.90;99.90
20141;DHT22;10231;47.702;9.826;2022-11-02T18:07:57;9.90;99.90
20141;DHT22;10231;47.702;9.826;2022-11-02T18:10:30;9.90;99.90
20141;DHT22;10231;47.702;9.826;2022-11-02T18:12:56;9.70;99.90
20141;DHT22;10231;47.702;9.826;2022-11-02T18:15:27;9.70;99.90
20141;DHT22;10231;47.702;9.826;2022-11-02T18:17:53;9.70;99.90
20141;DHT22;10231;47.702;9.826;2022-11-02T18:20:21;9.70;99.90
20141;DHT22;10231;47.702;9.826;2022-11-02T18:22:47;9.70;99.90
20141;DHT22;10231;47.702;9.826;2022-11-02T18:25:15;9.60;99.90
20141;DHT22;10231;47.702;9.826;2022-11-02T18:27:41;9.60;99.90
20141;DHT22;10231;47.702;9.826;2022-11-02T18:30:08;9.50;99.90
20141;DHT22;10231;47.702;9.826;2022-11-02T18:32:36;9.60;99.90
20141;DHT22;10231;47.702;9.826;2022-11-02T18:35:03;9.60;99.90
20141;DHT22;10231;47.702;9.826;2022-11-02T18:37:28;9.40;99.90
20141;DHT22;10231;47.702;9.826;2022-11-02T18:39:54;9.40;99.90